Time;durP1;ratioP1;P1;durP2;ratioP2;P2;SDS_P1;SDS_P2;PMS_P1;PMS_P2;Temp;Humidity;BMP_temperature;BMP_pressure;BME280_temperature;BME280_humidity;BME280_pressure;Samples;Min_cycle;Max_cycle;Signal;HPM_P1;HPM_P2
2023/07/15 00:01:05;;;;;;;7.25;6.35;;;24.50;67.40;;;;;;5015460;28;20036;-54
2023/07/15 00:03:52;;;;;;;6.90;6.15;;;24.50;67.70;;;;;;5014797;28;20081;-52
2023/07/15 00:06:38;;;;;;;7.50;6.15;;;24.40;68.10;;;;;;5014749;28;20526;-55
2023/07/15 00:09:27;;;;;;;7.75;5.45;;;24.40;68.30;;;;;;5014987;28;20509;-55
2023/07/15 00:12:15;;;;;;;7.35;5.50;;;24.40;68.40;;;;;;5013016;28;20042;-54
2023/07/15 00:15:01;;;;;;;7.00;5.32;;;24.30;68.20;;;;;;5013117;28;20038;-53
2023/07/15 00:17:47;;;;;;;6.95;5.20;;;24.30;68.50;;;;;;5014293;28;20026;-54
2023/07/15 00:20:35;;;;;;;7.82;4.97;;;24.30;68.40;;;;;;5014745;28;20034;-54
2023/07/15 00:23:24;;;;;;;6.93;5.35;;;24.30;68.20;;;;;;5015110;28;20040;-53
2023/07/15 00:26:10;;;;;;;6.55;5.32;;;24.30;68.20;;;;;;5014265;28;20068;-55
2023/07/15 00:28:57;;;;;;;5.55;4.88;;;24.20;68.50;;;;;;5012789;28;20038;-56
2023/07/15 00:31:43;;;;;;;6.57;5.47;;;24.10;68.50;;;;;;5013725;28;20041;-53
2023/07/15 00:34:29;;;;;;;7.13;5.35;;;24.00;68.40;;;;;;5012580;28;20038;-51
2023/07/15 00:37:16;;;;;;;7.40;4.85;;;24.00;69.20;;;;;;5013601;28;20042;-53
2023/07/15 00:40:03;;;;;;;6.60;5.25;;;23.90;68.60;;;;;;5011506;28;20503;-55
2023/07/15 00:42:52;;;;;;;6.72;5.28;;;23.90;68.70;;;;;;5012847;28;20030;-56
2023/07/15 00:45:38;;;;;;;7.97;5.57;;;23.90;68.70;;;;;;5011954;28;20439;-58
2023/07/15 00:48:27;;;;;;;9.82;5.65;;;23.90;68.70;;;;;;5017195;28;20030;-58
2023/07/15 00:51:13;;;;;;;14.68;9.95;;;23.80;69.10;;;;;;5016642;28;20033;-58
2023/07/15 00:54:02;;;;;;;15.93;9.85;;;23.70;69.80;;;;;;5014793;28;20045;-56
2023/07/15 00:56:49;;;;;;;15.35;10.40;;;23.60;70.70;;;;;;5014136;28;20058;-59
2023/07/15 00:59:38;;;;;;;13.25;9.30;;;23.50;71.50;;;;;;5013937;28;20069;-58
2023/07/15 01:02:25;;;;;;;9.20;7.25;;;23.30;72.10;;;;;;5014601;28;20034;-58
2023/07/15 01:05:11;;;;;;;9.85;7.40;;;23.30;72.50;;;;;;5014082;28;20022;-58
2023/07/15 01:07:57;;;;;;;9.73;8.35;;;23.20;72.60;;;;;;5013773;28;20520;-57
2023/07/15 01:10:43;;;;;;;9.55;6.72;;;23.20;72.30;;;;;;5013389;28;20037;-58
2023/07/15 01:13:29;;;;;;;9.95;6.88;;;23.30;72.10;;;;;;5014026;28;20141;-58
2023/07/15 01:16:16;;;;;;;9.68;6.65;;;23.30;72.00;;;;;;5013681;28;20133;-58
2023/07/15 01:19:05;;;;;;;8.88;6.65;;;23.30;72.10;;;;;;5014134;28;20033;-58
2023/07/15 01:21:51;;;;;;;8.95;6.60;;;23.20;71.90;;;;;;5013526;28;20498;-55
2023/07/15 01:24:38;;;;;;;10.77;6.35;;;23.10;71.60;;;;;;5011470;28;20034;-54
2023/07/15 01:27:26;;;;;;;8.98;6.57;;;23.10;71.30;;;;;;5013838;28;20042;-56
2023/07/15 01:30:12;;;;;;;21.50;14.63;;;23.10;71.40;;;;;;5020489;28;20066;-54
2023/07/15 01:32:58;;;;;;;22.73;19.23;;;23.00;71.70;;;;;;5013774;28;20034;-58
2023/07/15 01:35:47;;;;;;;15.05;11.45;;;23.00;71.80;;;;;;5013785;28;20026;-58
2023/07/15 01:38:33;;;;;;;12.60;11.13;;;23.00;72.00;;;;;;5013438;28;20022;-56
2023/07/15 01:41:19;;;;;;;20.13;14.27;;;22.90;72.00;;;;;;5013040;28;20026;-58
2023/07/15 01:44:05;;;;;;;15.85;10.45;;;22.90;72.20;;;;;;5013336;28;20033;-58
2023/07/15 01:46:51;;;;;;;9.77;7.53;;;22.80;72.50;;;;;;5012607;28;20410;-57
2023/07/15 01:49:37;;;;;;;10.68;6.28;;;22.80;72.40;;;;;;4997720;28;20429;-57
2023/07/15 01:52:23;;;;;;;7.15;5.75;;;22.80;72.00;;;;;;5013981;28;20072;-54
2023/07/15 01:55:09;;;;;;;10.85;6.57;;;22.90;71.70;;;;;;5013422;28;20142;-53
2023/07/15 01:57:55;;;;;;;10.85;5.78;;;22.90;71.80;;;;;;5012988;28;20113;-57
2023/07/15 02:00:41;;;;;;;8.52;6.25;;;22.90;71.80;;;;;;5013286;28;20045;-55
2023/07/15 02:03:27;;;;;;;7.28;6.03;;;22.90;71.70;;;;;;5012646;28;20026;-56
2023/07/15 02:06:16;;;;;;;8.35;6.03;;;22.80;71.60;;;;;;5013177;28;20030;-56
2023/07/15 02:09:07;;;;;;;8.15;6.13;;;22.80;71.50;;;;;;5011368;28;20034;-57
2023/07/15 02:11:53;;;;;;;8.57;5.70;;;22.80;71.40;;;;;;5012446;28;20038;-55
2023/07/15 02:14:39;;;;;;;8.27;5.55;;;22.80;71.40;;;;;;5013689;28;20065;-56
2023/07/15 02:17:25;;;;;;;8.93;5.40;;;22.80;71.20;;;;;;5015333;28;20026;-53
2023/07/15 02:20:12;;;;;;;9.63;5.70;;;22.80;71.30;;;;;;5017364;28;20033;-54
2023/07/15 02:22:58;;;;;;;8.10;5.80;;;22.80;71.40;;;;;;4999628;28;20045;-55
2023/07/15 02:25:44;;;;;;;7.97;5.78;;;22.70;71.40;;;;;;5014396;28;20030;-56
2023/07/15 02:28:30;;;;;;;10.48;6.15;;;22.70;71.50;;;;;;5014933;28;20042;-53
2023/07/15 02:31:16;;;;;;;7.82;5.57;;;22.80;71.40;;;;;;5013285;28;20038;-52
2023/07/15 02:34:02;;;;;;;7.00;5.28;;;22.70;71.40;;;;;;5012987;28;20032;-52
2023/07/15 02:36:48;;;;;;;9.35;6.00;;;22.80;71.40;;;;;;5012168;28;20115;-53
2023/07/15 02:39:34;;;;;;;7.53;5.55;;;22.70;71.40;;;;;;5012789;28;20026;-52
2023/07/15 02:42:20;;;;;;;7.88;5.78;;;22.70;71.40;;;;;;5011041;28;20057;-53
2023/07/15 02:45:08;;;;;;;11.20;5.80;;;22.70;71.40;;;;;;5012719;28;20403;-56
2023/07/15 02:47:54;;;;;;;8.65;5.78;;;22.60;71.50;;;;;;5012799;28;20038;-53
2023/07/15 02:50:40;;;;;;;7.57;5.57;;;22.60;71.60;;;;;;5012680;28;20030;-53
2023/07/15 02:53:26;;;;;;;7.55;5.72;;;22.60;72.50;;;;;;5012146;28;20026;-52
2023/07/15 02:56:12;;;;;;;7.55;5.40;;;22.50;71.90;;;;;;5011172;28;20490;-53
2023/07/15 02:58:58;;;;;;;10.20;5.63;;;22.50;72.40;;;;;;5012234;28;20453;-55
2023/07/15 03:01:43;;;;;;;8.38;5.60;;;22.50;72.00;;;;;;5012187;28;20026;-53
2023/07/15 03:04:29;;;;;;;7.28;5.78;;;22.40;72.80;;;;;;5012329;28;20026;-55
2023/07/15 03:07:16;;;;;;;7.38;5.88;;;22.40;72.20;;;;;;5012058;28;20502;-55
2023/07/15 03:10:03;;;;;;;6.43;5.30;;;22.30;72.30;;;;;;5011525;28;20037;-53
2023/07/15 03:12:49;;;;;;;7.82;5.68;;;22.30;72.40;;;;;;4996577;28;20037;-55
2023/07/15 03:15:35;;;;;;;8.75;5.57;;;22.30;72.30;;;;;;5020422;28;20449;-52
2023/07/15 03:18:25;;;;;;;6.85;5.20;;;22.30;72.60;;;;;;5019750;28;20091;-56
2023/07/15 03:21:11;;;;;;;8.55;5.55;;;22.30;72.50;;;;;;5019606;28;20026;-56
2023/07/15 03:23:57;;;;;;;7.65;5.63;;;22.30;72.40;;;;;;5019377;28;20077;-54
2023/07/15 03:26:42;;;;;;;9.30;5.78;;;22.30;72.40;;;;;;5018667;28;20548;-57
2023/07/15 03:29:28;;;;;;;5.50;4.88;;;22.40;72.30;;;;;;5016869;28;20502;-53
2023/07/15 03:32:14;;;;;;;7.90;5.60;;;22.30;72.30;;;;;;5018403;28;20034;-51
2023/07/15 03:35:00;;;;;;;7.55;5.47;;;22.30;72.30;;;;;;5016336;28;20069;-53
2023/07/15 03:37:46;;;;;;;6.68;5.57;;;22.30;72.40;;;;;;5015702;28;20029;-54
2023/07/15 03:40:32;;;;;;;8.38;6.05;;;22.30;72.40;;;;;;5015635;28;20159;-54
2023/07/15 03:43:18;;;;;;;8.68;5.45;;;22.30;72.20;;;;;;5015499;28;20065;-54
2023/07/15 03:46:04;;;;;;;6.78;5.35;;;22.20;72.50;;;;;;5014965;28;20570;-55
2023/07/15 03:48:50;;;;;;;8.05;5.45;;;22.30;72.50;;;;;;5015485;28;20037;-53
2023/07/15 03:51:36;;;;;;;5.93;5.22;;;22.30;72.40;;;;;;5015332;28;20113;-55
2023/07/15 03:54:22;;;;;;;8.40;5.18;;;22.30;72.40;;;;;;5015378;28;20030;-55
2023/07/15 03:57:09;;;;;;;6.80;5.32;;;22.30;72.50;;;;;;5014910;28;20538;-55
2023/07/15 03:59:55;;;;;;;8.52;5.03;;;22.20;72.50;;;;;;5015461;28;20105;-56
2023/07/15 04:02:44;;;;;;;7.90;5.45;;;22.20;72.80;;;;;;5015427;28;20034;-56
2023/07/15 04:05:30;;;;;;;6.05;4.60;;;22.20;72.90;;;;;;5014666;28;20026;-56
2023/07/15 04:08:16;;;;;;;5.90;5.15;;;22.20;72.70;;;;;;5014979;28;20104;-55
2023/07/15 04:11:02;;;;;;;8.55;5.13;;;22.30;72.90;;;;;;5013280;28;20026;-52
2023/07/15 04:13:48;;;;;;;8.82;5.38;;;22.20;72.90;;;;;;5015261;28;20026;-54
2023/07/15 04:16:34;;;;;;;7.68;4.80;;;22.20;73.00;;;;;;5014734;28;20026;-55
2023/07/15 04:19:20;;;;;;;7.93;5.13;;;22.20;73.10;;;;;;5014826;28;20018;-56
2023/07/15 04:22:06;;;;;;;6.22;4.90;;;22.20;73.10;;;;;;5039697;28;20029;-54
2023/07/15 04:24:52;;;;;;;5.50;4.90;;;22.30;73.00;;;;;;5014946;28;20037;-56
2023/07/15 04:27:38;;;;;;;7.68;5.43;;;22.30;73.00;;;;;;5013294;28;20029;-57
2023/07/15 04:30:24;;;;;;;7.60;4.90;;;22.30;73.10;;;;;;5014385;28;20423;-53
2023/07/15 04:33:10;;;;;;;8.23;5.30;;;22.30;73.40;;;;;;5013813;28;20059;-54
2023/07/15 04:35:56;;;;;;;6.55;5.10;;;22.30;73.30;;;;;;5013243;28;20104;-55
2023/07/15 04:38:42;;;;;;;11.02;5.70;;;22.20;73.30;;;;;;5013555;28;20033;-54
2023/07/15 04:41:28;;;;;;;8.75;5.32;;;22.20;73.50;;;;;;5013578;28;20478;-56
2023/07/15 04:44:14;;;;;;;7.75;5.50;;;22.10;73.80;;;;;;5014241;28;20348;-52
2023/07/15 04:47:00;;;;;;;6.93;5.32;;;22.10;74.00;;;;;;5014076;28;20038;-53
2023/07/15 04:49:46;;;;;;;7.70;5.15;;;22.20;74.00;;;;;;5014424;28;20061;-55
2023/07/15 04:52:32;;;;;;;6.30;5.18;;;22.30;73.80;;;;;;5014607;28;20121;-53
2023/07/15 04:55:18;;;;;;;6.93;5.00;;;22.30;73.70;;;;;;5016868;28;20379;-51
2023/07/15 04:58:04;;;;;;;7.35;4.70;;;22.40;73.70;;;;;;5015215;28;20077;-52
2023/07/15 05:00:50;;;;;;;7.47;4.85;;;22.50;73.50;;;;;;5012007;28;20030;-54
2023/07/15 05:03:36;;;;;;;10.48;5.13;;;22.60;73.60;;;;;;5014219;28;20394;-53
2023/07/15 05:06:22;;;;;;;7.07;5.38;;;22.50;73.60;;;;;;5011219;28;20026;-52
2023/07/15 05:09:09;;;;;;;5.53;4.82;;;22.50;73.70;;;;;;5014075;28;20490;-52
2023/07/15 05:11:57;;;;;;;5.75;4.55;;;22.60;73.90;;;;;;5012587;28;20105;-52
2023/07/15 05:14:43;;;;;;;6.35;4.80;;;22.60;73.80;;;;;;5013626;28;20133;-55
2023/07/15 05:17:28;;;;;;;7.85;5.30;;;22.70;73.70;;;;;;5011906;28;20061;-54
2023/07/15 05:20:14;;;;;;;7.07;5.88;;;22.80;73.90;;;;;;5012586;28;20030;-54
2023/07/15 05:23:02;;;;;;;11.18;5.90;;;22.80;73.90;;;;;;5013591;28;20037;-52
2023/07/15 05:25:48;;;;;;;7.47;5.07;;;22.80;73.90;;;;;;5013569;28;20030;-52
2023/07/15 05:28:35;;;;;;;6.35;5.22;;;22.90;73.80;;;;;;5018316;28;20045;-58
2023/07/15 05:31:21;;;;;;;6.07;4.88;;;23.00;73.80;;;;;;5026005;28;20124;-58
2023/07/15 05:34:07;;;;;;;6.68;5.45;;;23.10;73.70;;;;;;5013661;28;20076;-55
2023/07/15 05:36:53;;;;;;;6.22;5.13;;;23.20;73.50;;;;;;5012488;28;20403;-54
2023/07/15 05:39:39;;;;;;;6.30;5.10;;;23.20;73.50;;;;;;5010991;28;20121;-54
2023/07/15 05:42:25;;;;;;;5.72;4.88;;;23.40;73.40;;;;;;5011086;28;20053;-54
2023/07/15 05:45:12;;;;;;;7.90;5.20;;;23.40;73.30;;;;;;5013314;28;20037;-53
2023/07/15 05:47:57;;;;;;;8.68;5.07;;;23.40;73.40;;;;;;5013415;28;20053;-56
2023/07/15 05:50:43;;;;;;;7.75;5.18;;;23.50;73.40;;;;;;5014124;28;20053;-55
2023/07/15 05:53:31;;;;;;;7.78;5.55;;;23.50;73.40;;;;;;5014341;28;20018;-54
2023/07/15 05:56:17;;;;;;;7.95;5.60;;;23.40;73.60;;;;;;5017028;28;20553;-56
2023/07/15 05:59:03;;;;;;;6.13;5.28;;;23.40;73.70;;;;;;5016467;28;20037;-58
2023/07/15 06:01:49;;;;;;;6.57;5.20;;;23.50;73.90;;;;;;5014333;28;20046;-55
2023/07/15 06:04:35;;;;;;;6.85;4.90;;;23.60;73.70;;;;;;5012756;28;20096;-56
2023/07/15 06:07:21;;;;;;;6.95;5.25;;;23.70;73.60;;;;;;5012884;28;20038;-55
2023/07/15 06:10:07;;;;;;;7.05;4.88;;;23.60;73.70;;;;;;5012793;28;20034;-55
2023/07/15 06:12:53;;;;;;;6.68;4.97;;;23.70;73.70;;;;;;5013392;28;20018;-55
2023/07/15 06:15:39;;;;;;;7.07;5.07;;;23.80;73.70;;;;;;5012303;28;20033;-54
2023/07/15 06:18:25;;;;;;;5.43;4.85;;;23.80;73.80;;;;;;5015319;28;20101;-52
2023/07/15 06:21:11;;;;;;;8.88;5.72;;;24.00;73.80;;;;;;5013898;28;20088;-53
2023/07/15 06:23:57;;;;;;;7.90;5.10;;;24.10;73.60;;;;;;5013187;28;20080;-54
2023/07/15 06:26:43;;;;;;;8.43;5.20;;;24.10;73.70;;;;;;5012312;28;20038;-54
2023/07/15 06:29:29;;;;;;;7.07;5.20;;;24.20;74.30;;;;;;5011396;28;20076;-56
2023/07/15 06:32:15;;;;;;;6.78;5.25;;;24.30;73.60;;;;;;5011191;28;20033;-55
2023/07/15 06:35:01;;;;;;;6.15;5.15;;;24.40;73.70;;;;;;5012885;28;20061;-56
2023/07/15 06:37:48;;;;;;;7.15;4.90;;;24.30;73.80;;;;;;4998093;28;20034;-52
2023/07/15 06:40:34;;;;;;;7.10;5.30;;;24.40;73.90;;;;;;5012877;28;20033;-56
2023/07/15 06:43:20;;;;;;;7.05;5.43;;;24.50;74.20;;;;;;5012152;28;20386;-53
2023/07/15 06:46:06;;;;;;;6.38;5.32;;;24.60;74.10;;;;;;5012414;28;20032;-55
2023/07/15 06:48:52;;;;;;;8.40;4.93;;;24.70;74.30;;;;;;5012769;28;20073;-54
2023/07/15 06:51:38;;;;;;;6.88;5.40;;;24.80;74.10;;;;;;5016548;28;20033;-53
2023/07/15 06:54:24;;;;;;;7.72;4.95;;;24.90;74.00;;;;;;5015309;28;20030;-56
2023/07/15 06:57:10;;;;;;;8.10;5.00;;;25.00;73.80;;;;;;5018256;28;20135;-55
2023/07/15 06:59:56;;;;;;;7.25;4.75;;;25.10;74.20;;;;;;5017810;28;20037;-55
2023/07/15 07:02:42;;;;;;;6.38;4.82;;;25.20;74.00;;;;;;5016511;28;20060;-52
2023/07/15 07:05:28;;;;;;;6.60;4.50;;;25.30;72.40;;;;;;5016680;28;20406;-55
2023/07/15 07:08:14;;;;;;;5.15;4.65;;;25.40;72.20;;;;;;5016059;28;20030;-53
2023/07/15 07:11:01;;;;;;;9.65;4.50;;;25.60;72.40;;;;;;5014603;28;20040;-56
2023/07/15 07:13:47;;;;;;;5.45;4.95;;;25.70;72.10;;;;;;5014952;28;20041;-57
2023/07/15 07:16:33;;;;;;;6.72;4.85;;;25.80;71.60;;;;;;5015327;28;20037;-55
2023/07/15 07:19:19;;;;;;;6.43;4.70;;;25.90;71.80;;;;;;5015068;28;20042;-55
2023/07/15 07:22:05;;;;;;;6.35;4.57;;;26.10;71.70;;;;;;5016692;28;20034;-52
2023/07/15 07:24:52;;;;;;;7.03;4.60;;;26.30;71.40;;;;;;5021468;28;20093;-54
2023/07/15 07:27:38;;;;;;;5.40;4.50;;;26.30;71.00;;;;;;5023958;28;20038;-52
2023/07/15 07:30:24;;;;;;;5.57;4.82;;;26.50;70.70;;;;;;5027094;28;20037;-53
2023/07/15 07:33:10;;;;;;;5.30;4.47;;;26.50;69.60;;;;;;5021285;28;20030;-54
2023/07/15 07:35:56;;;;;;;5.50;4.35;;;26.60;69.90;;;;;;5016080;28;20030;-57
2023/07/15 07:38:44;;;;;;;7.40;4.32;;;26.70;69.50;;;;;;5015469;28;20529;-54
2023/07/15 07:41:29;;;;;;;6.78;4.68;;;26.90;69.30;;;;;;5015012;28;20517;-53
2023/07/15 07:44:15;;;;;;;5.60;4.50;;;27.00;69.40;;;;;;5015352;28;20076;-57
2023/07/15 07:47:01;;;;;;;5.28;4.53;;;27.20;69.40;;;;;;5015208;28;20131;-54
2023/07/15 07:49:47;;;;;;;5.78;4.63;;;27.20;69.00;;;;;;5015699;28;20030;-55
2023/07/15 07:52:33;;;;;;;4.85;4.35;;;27.40;69.20;;;;;;5015693;28;20030;-57
2023/07/15 07:55:19;;;;;;;5.68;4.22;;;27.50;68.70;;;;;;5015637;28;20057;-57
2023/07/15 07:58:05;;;;;;;5.90;4.32;;;27.60;66.80;;;;;;5015158;28;20037;-57
2023/07/15 08:00:51;;;;;;;5.47;4.40;;;27.60;66.20;;;;;;5014539;28;20423;-56
2023/07/15 08:03:38;;;;;;;7.85;4.60;;;27.70;66.30;;;;;;5014367;28;20028;-53
2023/07/15 08:06:25;;;;;;;5.03;4.20;;;27.80;65.10;;;;;;5014914;28;20026;-55
2023/07/15 08:09:10;;;;;;;7.38;4.13;;;27.80;65.00;;;;;;5012708;28;20056;-57
2023/07/15 08:11:58;;;;;;;7.80;3.92;;;27.90;65.10;;;;;;5014777;28;20040;-57
2023/07/15 08:14:44;;;;;;;8.05;4.35;;;28.00;65.40;;;;;;5014840;28;20036;-52
2023/07/15 08:17:30;;;;;;;5.60;3.92;;;28.20;65.50;;;;;;5013147;28;20515;-54
2023/07/15 08:20:16;;;;;;;4.75;4.25;;;28.10;64.10;;;;;;4998418;28;20029;-55
2023/07/15 08:23:03;;;;;;;4.30;3.80;;;28.30;64.30;;;;;;5022533;28;20029;-56
2023/07/15 08:25:49;;;;;;;6.78;4.18;;;28.40;64.10;;;;;;5034218;28;20029;-59
2023/07/15 08:28:35;;;;;;;5.68;4.60;;;28.50;64.30;;;;;;5035248;28;20045;-58
2023/07/15 08:31:21;;;;;;;4.30;3.78;;;28.50;63.10;;;;;;5033139;28;20461;-56
2023/07/15 08:34:07;;;;;;;8.15;3.90;;;28.50;63.20;;;;;;5033485;28;20025;-57
2023/07/15 08:36:53;;;;;;;6.90;4.20;;;28.50;63.60;;;;;;5032487;28;20038;-57
2023/07/15 08:39:39;;;;;;;4.35;3.90;;;28.80;64.50;;;;;;5032386;28;20065;-57
2023/07/15 08:42:27;;;;;;;6.82;3.85;;;28.90;63.30;;;;;;5032676;28;20052;-52
2023/07/15 08:45:13;;;;;;;6.55;4.20;;;28.80;62.60;;;;;;5033745;28;20040;-56
2023/07/15 08:47:59;;;;;;;4.95;4.00;;;29.00;63.20;;;;;;5032748;28;20107;-54
2023/07/15 08:50:47;;;;;;;5.30;4.15;;;29.00;62.60;;;;;;5034182;28;20037;-52
2023/07/15 08:53:33;;;;;;;6.38;4.57;;;29.10;62.90;;;;;;5032372;28;20030;-57
2023/07/15 08:56:20;;;;;;;7.60;4.90;;;29.20;62.30;;;;;;5033070;28;20378;-55
2023/07/15 08:59:06;;;;;;;5.32;4.07;;;29.30;62.30;;;;;;5039951;28;20144;-56
2023/07/15 09:01:52;;;;;;;7.63;4.43;;;29.40;61.60;;;;;;5036764;28;20025;-55
2023/07/15 09:04:39;;;;;;;5.35;4.20;;;29.50;61.90;;;;;;5034667;28;20501;-57
2023/07/15 09:07:26;;;;;;;5.70;4.40;;;29.50;61.30;;;;;;5031554;28;20494;-57
2023/07/15 09:10:13;;;;;;;5.35;4.20;;;29.70;61.40;;;;;;5033210;28;20413;-56
2023/07/15 09:12:59;;;;;;;5.68;4.10;;;29.80;61.30;;;;;;5033115;28;20104;-55
2023/07/15 09:15:47;;;;;;;6.97;3.95;;;29.80;60.50;;;;;;5033442;28;20486;-55
2023/07/15 09:18:38;;;;;;;6.40;4.25;;;30.00;60.30;;;;;;5033256;28;20525;-54
2023/07/15 09:21:25;;;;;;;4.97;4.20;;;30.10;60.10;;;;;;5033067;28;20030;-56
2023/07/15 09:24:11;;;;;;;5.07;3.88;;;30.10;59.60;;;;;;5032540;28;20155;-55
2023/07/15 09:26:59;;;;;;;6.35;4.00;;;30.10;59.90;;;;;;5032632;28;20469;-56
2023/07/15 09:29:49;;;;;;;6.32;4.03;;;30.20;59.00;;;;;;5033456;28;20041;-55
2023/07/15 09:32:36;;;;;;;8.70;3.67;;;30.40;58.80;;;;;;5032986;28;20121;-56
2023/07/15 09:35:22;;;;;;;6.20;4.80;;;30.50;58.50;;;;;;5034254;28;20033;-56
2023/07/15 09:38:11;;;;;;;7.15;3.83;;;30.60;58.70;;;;;;5033903;28;20030;-52
2023/07/15 09:40:58;;;;;;;5.22;3.53;;;30.60;57.50;;;;;;5032957;28;20033;-57
2023/07/15 09:43:49;;;;;;;6.38;3.75;;;30.70;58.20;;;;;;5033155;28;20021;-54
2023/07/15 09:46:35;;;;;;;5.85;3.90;;;30.70;58.30;;;;;;5031609;28;20030;-55
2023/07/15 09:49:21;;;;;;;4.55;3.65;;;30.90;58.20;;;;;;5031871;28;20036;-55
2023/07/15 09:52:07;;;;;;;7.68;4.03;;;31.10;57.70;;;;;;5032984;28;20029;-56
2023/07/15 09:54:53;;;;;;;7.95;4.05;;;31.30;58.80;;;;;;5033126;28;20029;-56
2023/07/15 09:57:39;;;;;;;4.70;3.92;;;31.30;57.90;;;;;;5033131;28;20065;-55
2023/07/15 10:00:29;;;;;;;5.43;4.20;;;31.40;57.40;;;;;;5033174;28;20048;-56
2023/07/15 10:03:23;;;;;;;10.18;3.95;;;31.50;57.40;;;;;;5032826;28;20034;-55
2023/07/15 10:06:11;;;;;;;5.35;3.90;;;31.60;57.00;;;;;;5030675;28;20025;-56
2023/07/15 10:08:58;;;;;;;6.57;3.88;;;31.70;56.60;;;;;;5031640;28;20018;-57
2023/07/15 10:11:45;;;;;;;5.63;4.25;;;31.60;56.30;;;;;;5032143;28;20033;-57
2023/07/15 10:14:32;;;;;;;4.20;3.50;;;31.70;56.60;;;;;;5031616;28;20037;-56
2023/07/15 10:17:18;;;;;;;5.68;4.28;;;31.70;55.60;;;;;;5031169;28;20473;-56
2023/07/15 10:20:12;;;;;;;4.60;3.88;;;31.60;56.10;;;;;;5032077;28;20406;-56
2023/07/15 10:23:01;;;;;;;7.60;4.05;;;31.60;55.50;;;;;;5033572;28;20056;-52
2023/07/15 10:26:07;;;;;;;5.72;3.55;;;31.70;55.70;;;;;;5039290;28;20033;-51
2023/07/15 10:28:53;;;;;;;5.03;3.85;;;31.70;55.70;;;;;;5039519;28;20413;-55
2023/07/15 10:31:39;;;;;;;6.38;3.60;;;31.90;55.70;;;;;;5037619;28;20022;-57
2023/07/15 10:34:48;;;;;;;4.43;3.58;;;32.00;55.50;;;;;;5038049;28;20564;-58
2023/07/15 10:37:57;;;;;;;4.18;3.75;;;32.10;55.00;;;;;;5038315;28;20029;-59
2023/07/15 10:41:02;;;;;;;4.85;3.30;;;32.30;55.10;;;;;;5037200;28;20152;-57
2023/07/15 10:43:48;;;;;;;5.50;3.63;;;32.50;55.00;;;;;;5036557;28;20022;-56
2023/07/15 10:46:34;;;;;;;4.90;2.95;;;32.60;54.60;;;;;;5035032;28;20064;-57
2023/07/15 10:49:21;;;;;;;5.25;3.60;;;32.60;54.20;;;;;;5035569;28;20569;-57
2023/07/15 10:52:08;;;;;;;5.18;3.50;;;32.70;54.50;;;;;;5035941;28;20450;-54
2023/07/15 10:54:55;;;;;;;3.42;3.03;;;32.80;53.80;;;;;;5035759;28;20029;-55
2023/07/15 10:57:41;;;;;;;8.35;3.53;;;32.70;54.10;;;;;;5037542;28;20037;-56
2023/07/15 11:00:30;;;;;;;4.22;3.22;;;32.60;55.20;;;;;;5037166;28;20092;-56
2023/07/15 11:03:20;;;;;;;5.05;3.30;;;32.90;54.30;;;;;;5038722;28;20049;-55
2023/07/15 11:06:06;;;;;;;4.22;3.47;;;32.80;54.20;;;;;;5036850;28;20501;-57
2023/07/15 11:08:52;;;;;;;3.95;3.13;;;32.60;54.00;;;;;;5035850;28;20037;-58
2023/07/15 11:11:41;;;;;;;5.35;3.65;;;32.60;54.30;;;;;;5038018;28;20600;-54
2023/07/15 11:14:28;;;;;;;5.90;3.72;;;32.60;54.80;;;;;;5036795;28;20029;-55
2023/07/15 11:17:15;;;;;;;4.57;3.28;;;32.80;54.40;;;;;;5035516;28;20022;-51
2023/07/15 11:20:06;;;;;;;3.50;3.00;;;32.90;54.10;;;;;;5036936;28;20607;-54
2023/07/15 11:22:52;;;;;;;4.25;3.17;;;33.10;53.90;;;;;;5037140;28;20100;-55
2023/07/15 11:25:38;;;;;;;6.75;3.20;;;33.40;53.40;;;;;;5034761;28;20509;-53
2023/07/15 11:28:24;;;;;;;6.30;3.67;;;33.40;53.70;;;;;;5035911;28;20030;-53
2023/07/15 11:31:11;;;;;;;3.50;3.20;;;33.40;53.50;;;;;;5034794;28;20438;-53
2023/07/15 11:33:57;;;;;;;4.25;3.42;;;33.50;53.40;;;;;;5037242;28;20036;-51
2023/07/15 11:36:44;;;;;;;5.90;3.35;;;33.80;53.70;;;;;;5037560;28;20068;-55
2023/07/15 11:39:31;;;;;;;3.65;3.30;;;33.70;53.70;;;;;;5038570;28;20509;-55
2023/07/15 11:42:17;;;;;;;4.20;3.00;;;33.70;54.10;;;;;;5034286;28;20030;-54
2023/07/15 11:45:03;;;;;;;6.88;4.55;;;33.80;53.40;;;;;;5034711;28;20472;-51
2023/07/15 11:47:52;;;;;;;4.55;4.15;;;34.00;53.30;;;;;;5033993;28;20044;-55
2023/07/15 11:50:38;;;;;;;4.95;3.55;;;34.10;52.90;;;;;;5034052;28;20080;-56
2023/07/15 11:53:32;;;;;;;4.72;3.42;;;34.20;53.00;;;;;;5033323;28;20058;-56
2023/07/15 11:56:32;;;;;;;4.85;3.22;;;34.30;52.70;;;;;;5034008;28;20017;-55
2023/07/15 11:59:31;;;;;;;5.00;3.25;;;34.30;52.70;;;;;;5033127;28;20446;-55
2023/07/15 12:02:19;;;;;;;5.15;3.60;;;34.00;53.00;;;;;;5033030;28;20112;-53
2023/07/15 12:05:06;;;;;;;7.80;3.42;;;33.90;53.10;;;;;;5034708;28;20541;-53
2023/07/15 12:07:52;;;;;;;4.07;3.45;;;33.90;53.10;;;;;;5033232;28;20042;-56
2023/07/15 12:10:58;;;;;;;5.45;3.40;;;34.30;53.30;;;;;;5033638;28;20517;-54
2023/07/15 12:13:44;;;;;;;5.55;3.47;;;34.70;52.60;;;;;;5034131;28;20036;-54
2023/07/15 12:16:32;;;;;;;7.82;3.35;;;35.00;52.60;;;;;;5033557;28;20108;-55
2023/07/15 12:19:18;;;;;;;5.05;3.33;;;35.00;52.10;;;;;;5035301;28;20044;-56
2023/07/15 12:22:04;;;;;;;8.90;3.17;;;34.60;51.90;;;;;;5034132;28;20025;-53
2023/07/15 12:24:50;;;;;;;5.10;3.50;;;34.30;52.10;;;;;;5033432;28;20038;-56
2023/07/15 12:27:36;;;;;;;5.95;3.33;;;33.90;53.10;;;;;;5032839;28;20044;-54
2023/07/15 12:30:23;;;;;;;6.13;3.28;;;33.80;53.40;;;;;;5032973;28;20045;-55
2023/07/15 12:33:09;;;;;;;3.92;2.80;;;33.80;54.10;;;;;;5032936;28;20065;-56
2023/07/15 12:35:54;;;;;;;4.07;3.50;;;33.70;53.40;;;;;;5033598;28;20030;-58
2023/07/15 12:38:41;;;;;;;4.80;3.28;;;33.60;53.40;;;;;;5033184;28;20037;-57
2023/07/15 12:41:27;;;;;;;4.35;3.10;;;33.50;53.80;;;;;;5034679;28;20092;-57
2023/07/15 12:44:14;;;;;;;3.55;3.25;;;33.50;54.70;;;;;;5032983;28;20104;-58
2023/07/15 12:46:59;;;;;;;4.07;3.67;;;33.40;54.30;;;;;;5033834;28;20038;-56
2023/07/15 12:49:45;;;;;;;4.13;3.10;;;33.30;53.70;;;;;;5034763;28;20033;-56
2023/07/15 12:52:31;;;;;;;6.32;3.63;;;33.20;53.70;;;;;;5034174;28;20068;-56
2023/07/15 12:55:17;;;;;;;5.30;3.30;;;33.20;54.10;;;;;;5034283;28;20038;-57
2023/07/15 12:58:03;;;;;;;5.53;3.10;;;33.00;54.90;;;;;;5033989;28;20034;-57
2023/07/15 13:00:50;;;;;;;4.32;3.20;;;33.00;53.90;;;;;;5033149;28;20446;-57
2023/07/15 13:03:36;;;;;;;4.00;3.03;;;33.10;53.80;;;;;;5034140;28;20059;-56
2023/07/15 13:06:22;;;;;;;6.57;3.10;;;33.10;53.50;;;;;;5033559;28;20457;-57
2023/07/15 13:09:08;;;;;;;3.83;3.42;;;33.20;53.60;;;;;;5033542;28;20494;-59
2023/07/15 13:11:54;;;;;;;3.75;3.35;;;33.20;53.90;;;;;;5033325;28;20032;-58
2023/07/15 13:14:39;;;;;;;5.97;3.40;;;33.20;53.60;;;;;;5033714;28;20040;-57
2023/07/15 13:17:25;;;;;;;4.97;3.10;;;33.30;53.50;;;;;;5033728;28;20061;-58
2023/07/15 13:20:13;;;;;;;5.18;2.97;;;33.20;53.60;;;;;;5033476;28;20029;-58
2023/07/15 13:22:59;;;;;;;5.63;3.28;;;33.20;53.60;;;;;;5032123;28;20044;-58
2023/07/15 13:25:44;;;;;;;5.35;3.60;;;33.20;54.10;;;;;;5033692;28;20037;-58
2023/07/15 13:28:30;;;;;;;7.53;3.75;;;33.20;54.20;;;;;;5017781;28;20037;-58
2023/07/15 13:31:16;;;;;;;6.72;3.90;;;33.40;53.80;;;;;;5031756;28;20037;-57
2023/07/15 13:34:02;;;;;;;5.88;3.58;;;33.60;53.50;;;;;;5033609;28;20022;-58
2023/07/15 13:36:48;;;;;;;3.90;3.30;;;33.70;53.90;;;;;;5031561;28;20038;-56
2023/07/15 13:39:39;;;;;;;3.85;3.22;;;33.70;53.70;;;;;;5032838;28;20124;-53
2023/07/15 13:42:25;;;;;;;5.05;3.33;;;33.70;53.90;;;;;;5035302;28;20405;-58
2023/07/15 13:45:11;;;;;;;3.85;3.40;;;33.70;53.30;;;;;;5032254;28;20585;-58
2023/07/15 13:47:57;;;;;;;4.35;3.58;;;33.70;53.20;;;;;;5031710;28;20120;-57
2023/07/15 13:50:43;;;;;;;6.10;3.67;;;33.70;53.30;;;;;;5032189;28;20075;-57
2023/07/15 13:53:29;;;;;;;4.47;3.67;;;33.50;53.60;;;;;;5031836;28;20025;-57
2023/07/15 13:56:16;;;;;;;5.30;3.55;;;33.50;54.50;;;;;;5031154;28;20026;-57
2023/07/15 13:59:02;;;;;;;6.10;3.65;;;33.40;55.00;;;;;;5031422;28;20064;-54
2023/07/15 14:01:49;;;;;;;4.00;3.60;;;33.30;55.00;;;;;;5031419;28;20033;-58
2023/07/15 14:04:34;;;;;;;3.90;3.28;;;33.30;54.70;;;;;;5031326;28;20051;-58
2023/07/15 14:07:20;;;;;;;4.22;3.30;;;33.20;54.60;;;;;;5032034;28;20062;-58
2023/07/15 14:10:07;;;;;;;6.43;3.55;;;33.20;54.90;;;;;;5032726;28;20056;-58
2023/07/15 14:12:53;;;;;;;5.53;3.60;;;33.20;55.00;;;;;;5031858;28;20425;-56
2023/07/15 14:15:38;;;;;;;6.03;3.42;;;33.20;55.00;;;;;;5032062;28;20588;-57
2023/07/15 14:18:24;;;;;;;4.50;3.25;;;33.20;54.80;;;;;;5032889;28;20030;-57
2023/07/15 14:21:10;;;;;;;5.50;3.28;;;33.20;54.30;;;;;;5031270;28;20413;-58
2023/07/15 14:23:56;;;;;;;4.55;3.35;;;33.10;54.40;;;;;;5031808;28;20394;-58
2023/07/15 14:26:42;;;;;;;3.60;3.30;;;33.00;54.60;;;;;;5031711;28;20120;-58